Time;durP1;ratioP1;P1;durP2;ratioP2;P2;SDS_P1;SDS_P2;PMS_P1;PMS_P2;Temp;Humidity;BMP_temperature;BMP_pressure;BME280_temperature;BME280_humidity;BME280_pressure;Samples;Min_cycle;Max_cycle;Signal;HPM_P1;HPM_P2
2024/01/29 00:02:14;;;;;;;;;60.00;49.75;;;;;6.37;100.00;102316.81;4960214;28;45344;-76
2024/01/29 00:04:39;;;;;;;;;57.75;47.25;;;;;6.27;100.00;102299.53;4953789;28;46491;-76
2024/01/29 00:07:05;;;;;;;;;62.75;49.50;;;;;6.36;100.00;102315.91;4960025;28;46056;-75
2024/01/29 00:09:30;;;;;;;;;59.00;46.75;;;;;6.02;100.00;102255.00;4953467;28;45336;-75
2024/01/29 00:11:55;;;;;;;;;59.25;47.25;;;;;6.25;100.00;102307.31;4959908;28;48261;-76
2024/01/29 00:14:22;;;;;;;;;59.00;47.50;;;;;6.03;100.00;102255.09;4953385;28;45204;-76
2024/01/29 00:16:47;;;;;;;;;56.25;45.25;;;;;6.22;100.00;102293.09;4942048;28;47104;-75
2024/01/29 00:19:13;;;;;;;;;60.50;48.00;;;;;6.24;100.00;102300.22;4956041;28;45382;-75
2024/01/29 00:21:39;;;;;;;;;58.25;47.50;;;;;6.32;100.00;102313.88;4960092;28;45386;-76
2024/01/29 00:24:04;;;;;;;;;56.75;46.75;;;;;6.35;100.00;102310.53;4954291;28;45406;-75
2024/01/29 00:26:29;;;;;;;;;55.75;45.00;;;;;6.20;100.00;102279.84;4959730;28;45316;-76
2024/01/29 00:28:56;;;;;;;;;60.50;45.75;;;;;6.47;100.00;102325.41;4955269;28;45498;-75
2024/01/29 00:31:22;;;;;;;;;49.25;39.25;;;;;6.42;100.00;102313.69;4944997;28;45339;-75
2024/01/29 00:33:48;;;;;;;;;58.00;42.50;;;;;6.22;100.00;102277.34;4956823;28;45577;-77
2024/01/29 00:36:13;;;;;;;;;54.00;45.50;;;;;6.24;100.00;102276.59;4958834;28;45269;-75
2024/01/29 00:38:39;;;;;;;;;55.75;46.25;;;;;6.37;100.00;102291.44;4957564;28;44975;-76
2024/01/29 00:41:04;;;;;;;;;59.00;46.50;;;;;6.58;100.00;102323.47;4941423;28;52473;-76
2024/01/29 00:43:30;;;;;;;;;58.00;46.75;;;;;6.34;100.00;102275.50;4957123;28;56728;-75
2024/01/29 00:45:55;;;;;;;;;58.00;46.00;;;;;6.62;100.00;102329.81;4958750;28;45215;-76
2024/01/29 00:48:22;;;;;;;;;52.00;43.00;;;;;6.36;100.00;102281.75;4957442;28;58400;-75
2024/01/29 00:50:48;;;;;;;;;54.25;43.00;;;;;6.59;100.00;102313.88;4952750;28;45386;-76
2024/01/29 00:53:13;;;;;;;;;62.25;48.50;;;;;6.70;100.00;102336.50;4958515;28;45306;-75
2024/01/29 00:55:40;;;;;;;;;58.25;43.75;;;;;6.14;100.00;102234.81;4955511;28;45388;-76
2024/01/29 00:58:05;;;;;;;;;53.75;42.75;;;;;6.72;100.00;102333.16;4956441;28;45443;-76
2024/01/29 01:00:31;;;;;;;;;52.50;43.50;;;;;6.71;100.00;102333.94;4955267;28;44804;-76
2024/01/29 01:02:56;;;;;;;;;53.00;42.75;;;;;6.60;100.00;102311.31;4957668;28;45251;-76
2024/01/29 01:05:21;;;;;;;;;53.00;43.00;;;;;6.67;100.00;102320.53;4955233;28;46188;-76
2024/01/29 01:07:47;;;;;;;;;48.00;39.00;;;;;6.72;100.00;102326.97;4962349;28;45302;-76
2024/01/29 01:10:12;;;;;;;;;54.75;40.50;;;;;6.34;100.00;102264.09;4961263;28;45477;-76
2024/01/29 01:12:37;;;;;;;;;46.50;39.00;;;;;6.72;100.00;102327.91;4963595;28;45422;-76
2024/01/29 01:15:03;;;;;;;;;53.50;42.50;;;;;6.74;100.00;102333.22;4961136;28;46144;-76
2024/01/29 01:17:28;;;;;;;;;53.75;40.50;;;;;6.76;100.00;102325.47;4964977;28;45189;-77
2024/01/29 01:19:54;;;;;;;;;47.25;40.50;;;;;6.70;100.00;102304.97;4964703;28;45397;-76
2024/01/29 01:22:19;;;;;;;;;49.00;37.50;;;;;6.03;100.00;102191.22;4965244;28;45202;-76
2024/01/29 01:24:44;;;;;;;;;47.00;40.75;;;;;6.45;100.00;102263.06;4959013;28;45906;-77
2024/01/29 01:27:11;;;;;;;;;41.00;36.75;;;;;6.57;100.00;102284.84;4963804;28;45396;-75
2024/01/29 01:29:37;;;;;;;;;43.00;38.00;;;;;6.49;100.00;102278.19;4940400;28;45199;-76
2024/01/29 01:32:02;;;;;;;;;44.00;38.00;;;;;6.34;100.00;102267.63;4964217;28;45431;-75
2024/01/29 01:34:28;;;;;;;;;46.75;38.75;;;;;6.58;100.00;102312.03;4963058;28;45333;-76
2024/01/29 01:36:53;;;;;;;;;41.25;37.00;;;;;6.30;100.00;102273.47;4970677;28;45294;-76
2024/01/29 01:39:18;;;;;;;;;46.75;39.00;;;;;6.57;100.00;102336.50;4964025;28;45314;-75
2024/01/29 01:41:48;;;;;;;;;52.00;42.25;;;;;6.53;100.00;102334.50;4965276;28;45445;-75
2024/01/29 01:44:13;;;;;;;;;45.75;38.50;;;;;6.47;100.00;102328.03;4963552;28;46590;-75
2024/01/29 01:46:39;;;;;;;;;49.75;41.75;;;;;6.16;100.00;102288.34;4965736;28;45177;-76
2024/01/29 01:49:04;;;;;;;;;45.75;39.75;;;;;6.24;100.00;102304.56;4960327;28;45154;-76
2024/01/29 01:51:30;;;;;;;;;56.00;42.00;;;;;6.03;100.00;102267.31;4963265;28;45261;-75
2024/01/29 01:53:58;;;;;;;;;51.00;39.25;;;;;6.18;100.00;102310.31;4960906;28;46140;-75
2024/01/29 01:56:24;;;;;;;;;51.75;42.00;;;;;5.49;100.00;102197.19;4962883;28;46437;-75
2024/01/29 01:58:53;;;;;;;;;46.75;38.50;;;;;5.82;100.00;102274.63;4962571;28;45462;-76
2024/01/29 02:01:19;;;;;;;;;49.50;39.25;;;;;6.16;100.00;102332.97;4965240;28;45490;-76
2024/01/29 02:03:45;;;;;;;;;46.75;38.75;;;;;6.01;100.00;102301.34;4960494;28;45361;-75
2024/01/29 02:06:11;;;;;;;;;55.25;42.00;;;;;6.14;100.00;102342.44;4962585;28;45405;-75
2024/01/29 02:08:37;;;;;;;;;50.50;39.75;;;;;6.11;100.00;102346.59;4961211;28;45326;-74
2024/01/29 02:11:03;;;;;;;;;53.75;44.00;;;;;5.99;100.00;102318.72;4964438;28;45472;-74
2024/01/29 02:13:30;;;;;;;;;52.50;43.00;;;;;6.00;100.00;102323.16;4942181;28;47935;-74
2024/01/29 02:15:55;;;;;;;;;59.25;46.50;;;;;6.04;100.00;102332.13;4964537;28;45315;-74
2024/01/29 02:18:20;;;;;;;;;55.25;44.25;;;;;5.74;100.00;102292.50;4957279;28;45501;-74
2024/01/29 02:20:46;;;;;;;;;60.75;46.00;;;;;5.61;100.00;102275.00;4962110;28;45473;-74
2024/01/29 02:23:11;;;;;;;;;53.25;40.00;;;;;5.65;100.00;102286.59;4969029;28;45260;-74
2024/01/29 02:25:36;;;;;;;;;54.75;42.50;;;;;5.88;100.00;102339.72;4960729;28;45555;-75
2024/01/29 02:28:02;;;;;;;;;53.00;43.00;;;;;5.79;100.00;102333.06;4958688;28;50049;-75
2024/01/29 02:30:27;;;;;;;;;50.50;41.50;;;;;5.81;100.00;102343.66;4958676;28;45315;-75
2024/01/29 02:32:52;;;;;;;;;51.50;42.25;;;;;5.70;100.00;102334.16;4959563;28;46440;-74
2024/01/29 02:35:18;;;;;;;;;53.75;43.75;;;;;5.62;100.00;102325.75;4961415;28;44697;-75
2024/01/29 02:37:43;;;;;;;;;56.75;46.75;;;;;5.51;100.00;102311.88;4964385;28;45361;-74
2024/01/29 02:40:09;;;;;;;;;56.00;43.00;;;;;5.68;100.00;102339.28;4959556;28;58686;-75
2024/01/29 02:42:35;;;;;;;;;61.25;48.25;;;;;5.54;100.00;102319.97;4942720;28;46782;-74
2024/01/29 02:45:00;;;;;;;;;58.75;46.25;;;;;5.12;100.00;102252.34;4960205;28;45192;-75
2024/01/29 02:47:25;;;;;;;;;52.75;39.75;;;;;5.38;100.00;102297.03;4961528;28;45310;-75
2024/01/29 02:49:51;;;;;;;;;54.50;40.50;;;;;5.47;100.00;102312.50;4955545;28;45204;-76
2024/01/29 02:52:16;;;;;;;;;44.25;39.00;;;;;5.01;100.00;102234.97;4946404;28;47780;-76
2024/01/29 02:54:42;;;;;;;;;50.75;39.50;;;;;5.55;100.00;102327.06;4956586;28;44788;-75
2024/01/29 02:57:07;;;;;;;;;33.00;29.75;;;;;5.23;100.00;102274.97;4961210;28;45300;-75
2024/01/29 02:59:32;;;;;;;;;41.00;36.00;;;;;5.54;100.00;102316.44;4955825;28;45413;-74
2024/01/29 03:01:58;;;;;;;;;38.00;34.00;;;;;5.39;100.00;102284.81;4960408;28;65855;-74
2024/01/29 03:04:24;;;;;;;;;39.00;35.50;;;;;5.41;100.00;102275.38;4937153;28;45513;-75
2024/01/29 03:06:49;;;;;;;;;54.25;41.75;;;;;5.45;100.00;102282.63;4961044;28;45350;-74
2024/01/29 03:09:15;;;;;;;;;49.50;42.25;;;;;5.61;100.00;102309.09;4954340;28;45261;-75
2024/01/29 03:11:41;;;;;;;;;60.00;47.75;;;;;5.51;100.00;102287.38;4960741;28;45154;-74
2024/01/29 03:14:06;;;;;;;;;66.25;53.00;;;;;5.50;100.00;102294.34;4937474;28;45359;-74
2024/01/29 03:16:32;;;;;;;;;67.50;52.25;;;;;5.68;100.00;102326.16;4960926;28;45413;-75
2024/01/29 03:18:57;;;;;;;;;67.50;51.25;;;;;5.57;100.00;102316.66;4955937;28;45317;-74
2024/01/29 03:21:23;;;;;;;;;63.75;51.25;;;;;5.60;100.00;102324.72;4960553;28;46105;-74
2024/01/29 03:23:48;;;;;;;;;67.50;52.25;;;;;5.66;100.00;102343.53;4956006;28;45322;-74
2024/01/29 03:26:13;;;;;;;;;54.50;42.25;;;;;5.64;100.00;102339.88;4954615;28;45727;-74
2024/01/29 03:28:40;;;;;;;;;64.50;52.25;;;;;5.33;100.00;102290.56;4956695;28;45415;-74
2024/01/29 03:31:05;;;;;;;;;68.00;51.75;;;;;5.59;100.00;102338.66;4942500;28;45601;-74
2024/01/29 03:33:31;;;;;;;;;65.00;49.25;;;;;5.31;100.00;102289.53;4958711;28;48328;-74
2024/01/29 03:35:56;;;;;;;;;64.50;50.50;;;;;5.36;100.00;102301.25;4964958;28;45197;-74
2024/01/29 03:38:21;;;;;;;;;60.50;48.75;;;;;5.55;100.00;102328.78;4942018;28;45651;-75
2024/01/29 03:40:47;;;;;;;;;60.75;47.25;;;;;5.32;100.00;102291.38;4943478;28;47388;-75
2024/01/29 03:43:12;;;;;;;;;67.00;50.75;;;;;5.55;100.00;102331.41;4959458;28;45268;-74
2024/01/29 03:45:37;;;;;;;;;58.25;43.75;;;;;5.17;100.00;102266.69;4954123;28;56519;-74
2024/01/29 03:48:03;;;;;;;;;60.00;48.75;;;;;5.29;100.00;102288.53;4959139;28;45559;-75
2024/01/29 03:50:28;;;;;;;;;67.00;50.00;;;;;5.42;100.00;102305.13;4939905;28;47342;-74
2024/01/29 03:52:54;;;;;;;;;61.25;49.00;;;;;5.32;100.00;102272.09;4955769;28;54261;-75
2024/01/29 03:55:19;;;;;;;;;59.50;48.00;;;;;5.65;100.00;102325.94;4954555;28;45494;-75
2024/01/29 03:57:45;;;;;;;;;65.50;50.50;;;;;5.25;100.00;102247.16;4941180;28;53875;-74
2024/01/29 04:00:11;;;;;;;;;57.50;47.50;;;;;5.42;100.00;102271.03;4955463;28;45392;-74
2024/01/29 04:02:36;;;;;;;;;57.00;45.50;;;;;5.79;100.00;102340.91;4952342;28;45376;-75
2024/01/29 04:05:01;;;;;;;;;61.75;48.25;;;;;5.78;100.00;102320.75;4954520;28;52312;-75
2024/01/29 04:07:27;;;;;;;;;52.75;42.00;;;;;5.88;100.00;102331.84;4960072;28;45316;-75
2024/01/29 04:09:52;;;;;;;;;59.00;44.25;;;;;5.78;100.00;102312.88;4953745;28;45320;-75
2024/01/29 04:12:18;;;;;;;;;63.00;46.25;;;;;5.95;100.00;102332.41;4959884;28;45319;-75
2024/01/29 04:14:43;;;;;;;;;56.25;42.25;;;;;5.88;100.00;102319.69;4942177;28;45473;-75
2024/01/29 04:17:10;;;;;;;;;51.25;40.75;;;;;5.98;100.00;102331.72;4959992;28;45411;-75
2024/01/29 04:19:36;;;;;;;;;54.50;45.75;;;;;5.96;100.00;102338.56;4938331;28;46879;-75
2024/01/29 04:22:01;;;;;;;;;60.50;45.75;;;;;5.60;100.00;102277.50;4969459;28;45446;-75
2024/01/29 04:24:28;;;;;;;;;52.00;43.00;;;;;5.74;100.00;102316.13;4957704;28;45397;-75
2024/01/29 04:26:53;;;;;;;;;58.00;44.75;;;;;5.63;100.00;102295.16;4959796;28;45545;-74
2024/01/29 04:29:19;;;;;;;;;50.25;41.00;;;;;5.92;100.00;102347.03;4957687;28;46116;-74
2024/01/29 04:31:44;;;;;;;;;51.00;42.75;;;;;5.93;100.00;102354.09;4959941;28;45308;-75
2024/01/29 04:34:09;;;;;;;;;53.75;45.25;;;;;5.52;100.00;102278.72;4939207;28;45240;-75
2024/01/29 04:36:34;;;;;;;;;42.50;38.25;;;;;5.59;100.00;102299.31;4961534;28;61363;-75
2024/01/29 04:39:00;;;;;;;;;49.00;40.75;;;;;5.14;100.00;102221.94;4957515;28;58340;-75
2024/01/29 04:41:25;;;;;;;;;48.25;40.50;;;;;5.58;100.00;102303.66;4958300;28;45327;-74
2024/01/29 04:43:50;;;;;;;;;51.75;41.50;;;;;5.64;100.00;102318.91;4954452;28;44713;-74
2024/01/29 04:46:16;;;;;;;;;36.00;30.50;;;;;5.84;100.00;102355.28;4957181;28;64539;-74
2024/01/29 04:48:41;;;;;;;;;42.75;37.50;;;;;5.98;100.00;102366.75;4957976;28;46111;-74
2024/01/29 04:51:08;;;;;;;;;46.25;41.25;;;;;6.01;100.00;102364.31;4958461;28;45455;-74
2024/01/29 04:53:34;;;;;;;;;53.25;41.75;;;;;6.00;100.00;102365.16;4957869;28;45277;-74
2024/01/29 04:56:03;;;;;;;;;49.25;38.25;;;;;5.91;100.00;102347.81;4958534;28;45283;-74
2024/01/29 04:58:29;;;;;;;;;40.75;37.50;;;;;6.00;100.00;102357.28;4954410;28;45347;-75
2024/01/29 05:00:55;;;;;;;;;45.00;36.75;;;;;5.87;100.00;102348.41;4941554;28;45405;-74
2024/01/29 05:03:20;;;;;;;;;42.25;36.25;;;;;5.84;100.00;102351.75;4937036;28;45340;-75
2024/01/29 05:05:45;;;;;;;;;42.25;38.00;;;;;5.64;100.00;102315.38;4959120;28;45363;-75
2024/01/29 05:08:11;;;;;;;;;42.00;35.25;;;;;5.61;100.00;102301.22;4956029;28;46010;-75
2024/01/29 05:10:36;;;;;;;;;36.00;33.75;;;;;5.93;100.00;102367.19;4938908;28;45310;-74
2024/01/29 05:13:01;;;;;;;;;49.50;36.25;;;;;5.97;100.00;102367.56;4957056;28;55384;-74
2024/01/29 05:15:27;;;;;;;;;37.75;34.75;;;;;5.85;100.00;102361.41;4956513;28;45316;-75
2024/01/29 05:17:53;;;;;;;;;37.00;36.00;;;;;5.55;100.00;102300.81;4948056;28;45518;-75
2024/01/29 05:20:19;;;;;;;;;41.00;35.00;;;;;5.93;100.00;102348.84;4957634;28;45299;-74
2024/01/29 05:22:44;;;;;;;;;37.50;33.25;;;;;6.08;100.00;102373.56;4958550;28;45554;-74
2024/01/29 05:25:09;;;;;;;;;34.00;31.50;;;;;6.13;100.00;102380.00;4958724;28;55502;-74
2024/01/29 05:27:35;;;;;;;;;38.75;36.00;;;;;6.17;100.00;102371.53;4958262;28;45251;-74
2024/01/29 05:30:00;;;;;;;;;37.75;33.25;;;;;5.74;100.00;102302.06;4957348;28;45486;-75
2024/01/29 05:32:25;;;;;;;;;37.50;33.25;;;;;5.98;100.00;102336.97;4941655;28;45441;-74
2024/01/29 05:34:51;;;;;;;;;37.75;35.50;;;;;6.06;100.00;102346.28;4940069;28;45841;-74
2024/01/29 05:37:16;;;;;;;;;35.50;30.25;;;;;6.14;100.00;102354.69;4937058;28;45581;-74
2024/01/29 05:39:42;;;;;;;;;33.00;31.25;;;;;6.10;100.00;102345.66;4955743;28;45220;-75
2024/01/29 05:42:07;;;;;;;;;41.75;36.00;;;;;5.69;100.00;102275.53;4956937;28;45182;-74
2024/01/29 05:44:32;;;;;;;;;34.25;30.50;;;;;6.25;100.00;102377.31;4955431;28;45226;-75
2024/01/29 05:46:58;;;;;;;;;38.25;33.00;;;;;6.02;100.00;102342.53;4958862;28;45310;-75
2024/01/29 05:49:23;;;;;;;;;33.25;30.50;;;;;5.82;100.00;102313.97;4956836;28;52251;-75
2024/01/29 05:51:48;;;;;;;;;41.50;37.25;;;;;5.91;100.00;102329.44;4958575;28;45169;-75
2024/01/29 05:54:14;;;;;;;;;39.75;35.00;;;;;5.98;100.00;102340.50;4954982;28;54964;-75
2024/01/29 05:56:45;;;;;;;;;29.50;26.50;;;;;6.03;100.00;102361.81;4961745;28;46418;-75
2024/01/29 05:59:10;;;;;;;;;42.25;36.50;;;;;5.91;100.00;102329.44;4958988;28;45280;-75
2024/01/29 06:01:35;;;;;;;;;32.25;30.25;;;;;5.97;100.00;102349.19;4963077;28;45198;-74
2024/01/29 06:04:02;;;;;;;;;38.00;31.00;;;;;6.13;100.00;102377.38;4958147;28;44777;-74
2024/01/29 06:06:28;;;;;;;;;26.50;23.25;;;;;6.03;100.00;102353.94;4961868;28;45293;-74
2024/01/29 06:08:53;;;;;;;;;33.50;27.50;;;;;5.66;100.00;102293.69;4956903;28;45270;-75
2024/01/29 06:11:21;;;;;;;;;36.75;30.25;;;;;6.27;100.00;102401.94;4962598;28;45355;-75
2024/01/29 06:13:47;;;;;;;;;40.75;31.00;;;;;5.97;100.00;102351.81;4955300;28;45330;-75
2024/01/29 06:16:19;;;;;;;;;36.00;31.00;;;;;6.25;100.00;102409.72;4961211;28;45330;-75
2024/01/29 06:18:44;;;;;;;;;35.50;31.00;;;;;6.18;100.00;102394.34;4956908;28;45491;-76
2024/01/29 06:21:09;;;;;;;;;26.25;23.00;;;;;5.86;100.00;102334.41;4963268;28;45330;-75
2024/01/29 06:23:35;;;;;;;;;32.75;29.50;;;;;5.91;100.00;102339.94;4955912;28;48202;-75
2024/01/29 06:26:00;;;;;;;;;31.75;29.25;;;;;6.27;100.00;102399.31;4958729;28;45289;-74
2024/01/29 06:28:25;;;;;;;;;31.00;26.50;;;;;6.39;100.00;102408.03;4955520;28;45351;-75
2024/01/29 06:30:51;;;;;;;;;20.25;19.00;;;;;6.11;100.00;102358.00;4945041;28;45276;-75
2024/01/29 06:33:16;;;;;;;;;34.00;27.25;;;;;6.00;100.00;102324.88;4940207;28;46065;-73
2024/01/29 06:35:41;;;;;;;;;35.00;27.25;;;;;6.45;100.00;102403.19;4963016;28;45216;-73
2024/01/29 06:38:07;;;;;;;;;36.00;31.75;;;;;6.25;100.00;102359.84;4960866;28;56081;-74
2024/01/29 06:40:32;;;;;;;;;31.50;30.50;;;;;6.30;100.00;102356.59;4961566;28;45266;-73
2024/01/29 06:42:58;;;;;;;;;29.50;28.00;;;;;6.61;100.00;102417.31;4959576;28;45373;-73
2024/01/29 06:45:23;;;;;;;;;24.75;22.25;;;;;6.32;100.00;102363.75;4957884;28;46154;-72
2024/01/29 06:47:49;;;;;;;;;27.25;24.50;;;;;6.37;100.00;102364.09;4959839;28;45458;-74
2024/01/29 06:50:14;;;;;;;;;33.75;31.50;;;;;5.98;100.00;102301.13;4937623;28;45355;-73
2024/01/29 06:52:40;;;;;;;;;25.50;23.00;;;;;6.40;100.00;102369.53;4960939;28;45387;-73
2024/01/29 06:55:05;;;;;;;;;32.75;27.25;;;;;6.58;100.00;102418.06;4940018;28;46845;-74
2024/01/29 06:57:31;;;;;;;;;29.25;28.00;;;;;6.52;100.00;102401.84;4967173;28;45380;-75
2024/01/29 06:59:56;;;;;;;;;31.50;28.75;;;;;6.36;100.00;102368.44;4952791;28;45551;-74
2024/01/29 07:02:22;;;;;;;;;32.50;27.75;;;;;6.57;100.00;102395.19;4953511;28;56903;-77
2024/01/29 07:04:47;;;;;;;;;31.50;24.75;;;;;6.74;100.00;102412.06;4938957;28;45376;-75
2024/01/29 07:07:13;;;;;;;;;40.50;32.00;;;;;6.70;100.00;102410.97;4967463;28;45314;-75
2024/01/29 07:09:38;;;;;;;;;27.50;26.00;;;;;6.70;100.00;102410.97;4961567;28;45458;-74
2024/01/29 07:12:05;;;;;;;;;39.25;37.50;;;;;6.79;100.00;102422.91;4960642;28;45193;-75
2024/01/29 07:14:30;;;;;;;;;26.25;24.00;;;;;6.79;100.00;102429.06;4942632;28;47250;-74
2024/01/29 07:16:56;;;;;;;;;30.50;24.75;;;;;6.59;100.00;102390.97;4969045;28;45316;-74
2024/01/29 07:19:33;;;;;;;;;34.25;31.50;;;;;6.66;100.00;102397.50;4939342;28;45367;-75
2024/01/29 07:21:58;;;;;;;;;33.75;28.25;;;;;6.65;100.00;102403.59;4968617;28;45515;-75
2024/01/29 07:24:24;;;;;;;;;29.75;25.75;;;;;6.84;100.00;102434.63;4953933;28;45322;-74
2024/01/29 07:26:49;;;;;;;;;26.50;22.00;;;;;6.88;100.00;102447.16;4965060;28;44856;-74
2024/01/29 07:29:16;;;;;;;;;25.00;23.50;;;;;6.87;100.00;102442.72;4963316;28;45356;-75
2024/01/29 07:31:41;;;;;;;;;21.75;19.50;;;;;6.90;100.00;102461.31;4969480;28;45420;-74
2024/01/29 07:34:06;;;;;;;;;25.50;24.50;;;;;6.65;100.00;102409.75;4966634;28;45363;-75
2024/01/29 07:36:31;;;;;;;;;28.50;21.00;;;;;6.90;100.00;102459.59;4972848;28;45215;-76
2024/01/29 07:38:57;;;;;;;;;23.50;22.00;;;;;6.94;100.00;102458.97;4971000;28;45304;-77
2024/01/29 07:41:22;;;;;;;;;30.00;27.00;;;;;6.69;100.00;102416.09;4962642;28;53317;-75
2024/01/29 07:43:49;;;;;;;;;26.00;25.50;;;;;6.86;100.00;102443.50;4939662;28;46131;-74
2024/01/29 07:46:14;;;;;;;;;27.75;21.75;;;;;6.94;100.00;102458.06;4953614;28;45247;-75
2024/01/29 07:48:40;;;;;;;;;26.00;24.75;;;;;6.85;100.00;102433.81;4939206;28;45540;-75
2024/01/29 07:51:07;;;;;;;;;26.25;21.25;;;;;7.06;100.00;102464.13;4956620;28;45501;-75
2024/01/29 07:53:32;;;;;;;;;23.00;19.50;;;;;6.94;100.00;102439.66;4957010;28;45565;-76
2024/01/29 07:55:57;;;;;;;;;28.75;26.00;;;;;7.12;100.00;102471.50;4959137;28;45300;-75
2024/01/29 07:58:23;;;;;;;;;30.75;27.25;;;;;7.08;100.00;102456.34;4945232;28;45277;-74
2024/01/29 08:00:49;;;;;;;;;23.75;20.75;;;;;6.93;100.00;102419.44;4943800;28;45328;-75
2024/01/29 08:03:14;;;;;;;;;28.75;25.75;;;;;7.10;100.00;102446.84;4961885;28;45335;-74
2024/01/29 08:05:39;;;;;;;;;26.50;26.25;;;;;7.16;100.00;102449.84;4954362;28;45353;-75
2024/01/29 08:08:05;;;;;;;;;28.25;24.75;;;;;7.26;100.00;102464.53;4958066;28;45193;-74
2024/01/29 08:10:31;;;;;;;;;28.25;25.25;;;;;7.10;100.00;102438.94;4959853;28;45577;-74
2024/01/29 08:12:56;;;;;;;;;30.25;26.75;;;;;7.44;100.00;102483.19;4958281;28;46219;-74
2024/01/29 08:15:22;;;;;;;;;29.50;25.00;;;;;7.21;100.00;102432.66;4957857;28;45323;-75
2024/01/29 08:17:48;;;;;;;;;29.50;27.00;;;;;7.51;100.00;102481.06;4948173;28;45605;-75
2024/01/29 08:20:13;;;;;;;;;31.50;28.25;;;;;7.38;100.00;102447.78;4958931;28;45409;-75
2024/01/29 08:22:38;;;;;;;;;25.00;24.00;;;;;7.47;100.00;102457.06;4959701;28;45106;-75
2024/01/29 08:25:04;;;;;;;;;28.00;24.75;;;;;7.40;100.00;102435.66;4958064;28;45431;-75
2024/01/29 08:27:31;;;;;;;;;34.00;29.25;;;;;7.66;100.00;102467.94;4943618;28;45335;-75
2024/01/29 08:29:57;;;;;;;;;27.50;25.25;;;;;7.78;100.00;102488.88;4957618;28;45461;-75
2024/01/29 08:32:23;;;;;;;;;28.00;26.50;;;;;7.78;100.00;102476.59;4960254;28;45446;-75
2024/01/29 08:34:49;;;;;;;;;27.25;26.25;;;;;7.54;100.00;102412.84;4956953;28;45347;-75
2024/01/29 08:37:14;;;;;;;;;28.25;26.00;;;;;8.03;100.00;102480.78;4967806;28;45259;-75
2024/01/29 08:39:40;;;;;;;;;30.25;30.25;;;;;7.84;100.00;102439.22;4957479;28;45415;-75
2024/01/29 08:42:06;;;;;;;;;27.50;23.00;;;;;7.84;100.00;102421.72;4960151;28;45161;-75
2024/01/29 08:44:31;;;;;;;;;34.00;27.25;;;;;8.21;100.00;102481.91;4959452;28;45213;-74
2024/01/29 08:46:57;;;;;;;;;29.25;28.00;;;;;8.04;100.00;102435.22;4960855;28;45502;-75
2024/01/29 08:49:22;;;;;;;;;29.75;27.00;;;;;8.02;100.00;102424.56;4958464;28;45264;-75
2024/01/29 08:51:47;;;;;;;;;27.50;25.00;;;;;8.35;100.00;102477.47;4942140;28;46583;-75
2024/01/29 08:54:13;;;;;;;;;23.75;19.00;;;;;8.46;100.00;102471.16;4959734;28;45287;-75
2024/01/29 08:56:39;;;;;;;;;33.25;27.75;;;;;8.48;100.00;102471.22;4960933;28;45220;-75
2024/01/29 08:59:06;;;;;;;;;25.00;23.75;;;;;8.62;100.00;102480.88;4955895;28;45319;-75
2024/01/29 09:01:31;;;;;;;;;31.75;29.25;;;;;8.39;100.00;102423.25;4960307;28;45335;-76
2024/01/29 09:03:56;;;;;;;;;32.75;28.25;;;;;8.75;100.00;102485.16;4937545;28;55756;-75
2024/01/29 09:06:22;;;;;;;;;29.00;24.75;;;;;8.57;100.00;102447.16;4958902;28;45239;-75
2024/01/29 09:08:47;;;;;;;;;30.50;25.75;;;;;8.85;100.00;102479.59;4957901;28;45321;-76
2024/01/29 09:11:12;;;;;;;;;26.75;23.50;;;;;8.41;100.00;102387.38;4945880;28;54974;-75
2024/01/29 09:13:38;;;;;;;;;27.75;23.75;;;;;8.90;100.00;102464.94;4953549;28;55900;-75
2024/01/29 09:16:04;;;;;;;;;26.00;22.25;;;;;8.98;100.00;102462.75;4959609;28;45414;-75
2024/01/29 09:18:30;;;;;;;;;28.50;24.50;;;;;9.13;100.00;102475.91;4954806;28;45574;-75
2024/01/29 09:20:55;;;;;;;;;30.75;24.25;;;;;9.20;100.00;102483.34;4957858;28;55411;-75
2024/01/29 09:23:21;;;;;;;;;26.75;23.50;;;;;9.21;100.00;102474.59;4940118;28;54729;-75
2024/01/29 09:25:46;;;;;;;;;27.75;23.50;;;;;8.95;100.00;102421.28;4959201;28;45445;-76
2024/01/29 09:28:11;;;;;;;;;29.00;25.00;;;;;9.30;100.00;102476.84;4958063;28;45490;-75
2024/01/29 09:30:37;;;;;;;;;22.50;21.50;;;;;9.02;100.00;102416.34;4961123;28;45212;-75
2024/01/29 09:33:03;;;;;;;;;23.75;22.00;;;;;9.17;100.00;102441.88;4942926;28;45315;-75
2024/01/29 09:35:28;;;;;;;;;24.75;22.00;;;;;9.41;100.00;102476.66;4961536;28;45362;-75
2024/01/29 09:37:53;;;;;;;;;27.75;23.75;;;;;9.36;100.00;102462.28;4963094;28;45387;-75
2024/01/29 09:40:20;;;;;;;;;24.75;23.75;;;;;9.25;100.00;102433.50;4962450;28;51371;-75
2024/01/29 09:42:49;;;;;;;;;25.50;21.75;;;;;9.48;100.00;102458.50;4961958;28;45291;-75
2024/01/29 09:45:24;;;;;;;;;30.00;22.00;;;;;9.52;100.00;102463.13;4960227;28;45392;-75
2024/01/29 09:47:51;;;;;;;;;25.00;23.50;;;;;9.64;100.00;102480.56;4948533;28;44815;-75
2024/01/29 09:50:18;;;;;;;;;25.75;22.25;;;;;9.72;100.00;102487.97;4962956;28;45223;-75
2024/01/29 09:52:46;;;;;;;;;29.50;27.00;;;;;9.77;100.00;102489.16;4962033;28;45177;-75
2024/01/29 09:55:11;;;;;;;;;25.00;24.25;;;;;9.57;100.00;102441.44;4957738;28;45772;-75
2024/01/29 09:57:38;;;;;;;;;18.50;16.25;;;;;9.62;100.00;102437.31;4944100;28;45818;-74
2024/01/29 10:00:04;;;;;;;;;19.75;15.75;;;;;9.82;100.00;102470.09;4958046;28;45319;-75
2024/01/29 10:02:34;;;;;;;;;26.00;19.00;;;;;9.74;100.00;102450.28;4945446;28;45316;-75
2024/01/29 10:04:59;;;;;;;;;16.00;13.50;;;;;9.88;100.00;102456.31;4958779;28;45296;-75
2024/01/29 10:07:25;;;;;;;;;16.50;13.75;;;;;10.09;100.00;102477.69;4944020;28;54378;-75
2024/01/29 10:09:51;;;;;;;;;14.25;13.50;;;;;10.17;100.00;102491.31;4941538;28;47038;-77
2024/01/29 10:12:23;;;;;;;;;12.75;10.00;;;;;10.23;100.00;102487.25;4961724;28;45263;-74
2024/01/29 10:14:49;;;;;;;;;15.50;13.25;;;;;10.20;100.00;102459.75;4958385;28;45173;-74
2024/01/29 10:17:15;;;;;;;;;13.50;10.75;;;;;10.45;100.00;102486.69;4961507;28;44872;-75
2024/01/29 10:19:43;;;;;;;;;15.50;13.50;;;;;10.36;100.00;102432.41;4959329;28;46032;-75
2024/01/29 10:22:12;;;;;;;;;15.50;13.00;;;;;10.65;100.00;102453.31;4945490;28;45319;-75
2024/01/29 10:24:38;;;;;;;;;14.50;14.00;;;;;10.89;100.00;102473.88;4960380;28;45479;-76
2024/01/29 10:27:08;;;;;;;;;17.25;12.75;;;;;11.02;100.00;102473.66;4961700;28;45204;-76
2024/01/29 10:29:34;;;;;;;;;17.25;14.50;;;;;10.96;100.00;102433.69;4960048;28;45281;-75
2024/01/29 10:32:00;;;;;;;;;15.50;12.50;;;;;11.34;100.00;102472.59;4927474;28;45380;-75
2024/01/29 10:34:25;;;;;;;;;11.25;10.75;;;;;11.36;100.00;102438.25;4957324;28;45508;-75
2024/01/29 10:36:53;;;;;;;;;15.00;12.00;;;;;11.40;100.00;102413.75;4966533;28;45545;-76
2024/01/29 10:39:21;;;;;;;;;15.50;12.00;;;;;11.78;100.00;102464.91;4950294;28;46490;-76
2024/01/29 10:41:51;;;;;;;;;17.50;14.50;;;;;11.70;100.00;102419.53;4962560;28;45355;-75
2024/01/29 10:44:19;;;;;;;;;18.00;15.00;;;;;12.10;100.00;102455.84;4959937;28;45315;-75
2024/01/29 10:46:46;;;;;;;;;14.00;11.25;;;;;11.70;100.00;102358.59;4964428;28;45266;-75
2024/01/29 10:49:12;;;;;;;;;15.00;12.25;;;;;11.98;100.00;102394.31;4966177;28;46165;-76
2024/01/29 10:51:40;;;;;;;;;16.25;16.25;;;;;12.48;100.00;102452.19;4964635;28;45469;-76
2024/01/29 10:54:08;;;;;;;;;16.00;14.75;;;;;12.38;100.00;102406.63;4969012;28;45540;-78
2024/01/29 10:56:36;;;;;;;;;17.25;13.50;;;;;12.71;100.00;102442.53;4946943;28;46251;-76
2024/01/29 10:59:02;;;;;;;;;24.50;23.50;;;;;12.49;100.00;102398.31;4965601;28;46657;-76
2024/01/29 11:01:28;;;;;;;;;35.00;29.25;;;;;12.81;100.00;102440.31;4940628;28;45383;-76
2024/01/29 11:03:56;;;;;;;;;22.25;19.50;;;;;12.87;100.00;102432.59;4955068;28;46196;-75